Back to Top

Language: 

My Weather Underground Personal Weather Station Historical Data with Graphs...

Delerius Weather Station Historical Data
Daily Summary for June 14, 2017 Units:  English    Metric   Both
« Previous Day
Next Day »
Daily Weekly Monthly Yearly Custom
  High: Low: Average:
Temperature: 77.2 °F 51.3 °F 66.4 °F
Dew Point: 59.5 °F 49.3 °F 55.8 °F
Humidity: 95 % 48 % 71 %
Wind Speed: 11.0 mph 0.0 mph 4.6 mph
Wind Gust: 19.0 mph - -
Wind:- - South
Pressure: 30.07 in 29.87 in -
Precipitation: 0.00 in    
Historical Graphs
 
 
Tabular Data for June 14, 2017
Time Temperature Dew Point Pressure Wind Wind Speed Wind Gust Humidity Rainfall Rate (Hourly) solar Conditions
00:03 57.4 °F 53.2 °F 30.06 in Calm   2.0 mph 86 % 0.00 in 0 W/m2
00:08 57.0 °F 52.9 °F 30.06 in WSW 1.0 mph 2.0 mph 86 % 0.00 in 0 W/m2
00:13 57.0 °F 53.2 °F 30.06 in WSW 1.0 mph 2.0 mph 87 % 0.00 in 0 W/m2
00:18 56.8 °F 53.0 °F 30.06 in Calm   2.0 mph 87 % 0.00 in 0 W/m2
00:23 56.8 °F 53.0 °F 30.06 in Calm     87 % 0.00 in 0 W/m2
00:28 56.7 °F 52.8 °F 30.07 in Calm     87 % 0.00 in 0 W/m2
00:33 56.7 °F 52.8 °F 30.07 in Calm     87 % 0.00 in 0 W/m2
00:38 56.5 °F 52.7 °F 30.07 in Calm     87 % 0.00 in 0 W/m2
00:43 56.1 °F 52.6 °F 30.07 in Calm   1.0 mph 88 % 0.00 in 0 W/m2
00:46 56.1 °F 52.6 °F 30.06 in Calm   1.0 mph 88 % 0.00 in 0 W/m2
00:51 55.9 °F 52.4 °F 30.06 in Calm   1.0 mph 88 % 0.00 in 0 W/m2
00:56 55.6 °F 52.1 °F 30.06 in Calm     88 % 0.00 in 0 W/m2
01:01 55.4 °F 52.2 °F 30.06 in Calm     89 % 0.00 in 0 W/m2
01:06 55.4 °F 52.2 °F 30.06 in Calm     89 % 0.00 in 0 W/m2
01:11 55.2 °F 52.0 °F 30.06 in Calm     89 % 0.00 in 0 W/m2
01:16 55.0 °F 51.9 °F 30.06 in Calm   2.0 mph 89 % 0.00 in 0 W/m2
01:21 54.9 °F 51.7 °F 30.06 in SW 1.0 mph 4.0 mph 89 % 0.00 in 0 W/m2
01:26 54.7 °F 51.5 °F 30.06 in WSW 1.0 mph 4.0 mph 89 % 0.00 in 0 W/m2
01:31 54.5 °F 51.6 °F 30.07 in Calm   4.0 mph 90 % 0.00 in 0 W/m2
01:36 54.3 °F 51.4 °F 30.06 in Calm     90 % 0.00 in 0 W/m2
01:41 54.1 °F 51.3 °F 30.07 in Calm   1.0 mph 90 % 0.00 in 0 W/m2
01:46 54.0 °F 51.1 °F 30.06 in Calm   1.0 mph 90 % 0.00 in 0 W/m2
01:51 54.0 °F 51.1 °F 30.07 in Calm   4.0 mph 90 % 0.00 in 0 W/m2
01:56 53.8 °F 51.2 °F 30.07 in WSW 1.0 mph 4.0 mph 91 % 0.00 in 0 W/m2
02:01 53.8 °F 50.9 °F 30.07 in WSW 1.0 mph 4.0 mph 90 % 0.00 in 0 W/m2
02:06 53.4 °F 50.9 °F 30.07 in Calm   2.0 mph 91 % 0.00 in 0 W/m2
02:11 53.4 °F 50.9 °F 30.06 in Calm   1.0 mph 91 % 0.00 in 0 W/m2
02:16 53.2 °F 50.7 °F 30.06 in Calm   1.0 mph 91 % 0.00 in 0 W/m2
02:19 53.1 °F 50.5 °F 30.06 in Calm   1.0 mph 91 % 0.00 in 0 W/m2
02:24 53.1 °F 50.5 °F 30.06 in Calm     91 % 0.00 in 0 W/m2
02:29 52.9 °F 50.3 °F 30.06 in Calm     91 % 0.00 in 0 W/m2
02:34 52.9 °F 50.3 °F 30.06 in Calm     91 % 0.00 in 0 W/m2
02:39 52.9 °F 50.6 °F 30.06 in Calm     92 % 0.00 in 0 W/m2
02:44 52.7 °F 50.1 °F 30.06 in Calm     91 % 0.00 in 0 W/m2
02:49 52.5 °F 50.0 °F 30.06 in Calm     91 % 0.00 in 0 W/m2
02:54 52.5 °F 50.3 °F 30.06 in Calm     92 % 0.00 in 0 W/m2
02:59 52.5 °F 50.3 °F 30.06 in Calm     92 % 0.00 in 0 W/m2
03:04 52.3 °F 50.1 °F 30.06 in Calm     92 % 0.00 in 0 W/m2
03:09 52.3 °F 50.1 °F 30.06 in Calm     92 % 0.00 in 0 W/m2
03:14 52.3 °F 50.1 °F 30.06 in Calm     92 % 0.00 in 0 W/m2
03:19 52.2 °F 49.9 °F 30.06 in Calm     92 % 0.00 in 0 W/m2
03:24 52.0 °F 49.7 °F 30.06 in Calm     92 % 0.00 in 0 W/m2
03:29 52.0 °F 49.7 °F 30.06 in Calm     92 % 0.00 in 0 W/m2
03:34 51.8 °F 49.5 °F 30.06 in Calm     92 % 0.00 in 0 W/m2
03:39 51.8 °F 49.5 °F 30.06 in Calm     92 % 0.00 in 0 W/m2
03:44 51.6 °F 49.4 °F 30.06 in Calm     92 % 0.00 in 0 W/m2
03:49 51.6 °F 49.7 °F 30.06 in Calm     93 % 0.00 in 0 W/m2
03:54 51.6 °F 49.7 °F 30.06 in Calm     93 % 0.00 in 0 W/m2
03:59 51.4 °F 49.5 °F 30.06 in Calm     93 % 0.00 in 0 W/m2
04:00 51.4 °F 49.5 °F 30.06 in Calm     93 % 0.00 in 0 W/m2
04:05 51.4 °F 49.5 °F 30.06 in Calm     93 % 0.00 in 0 W/m2
04:10 51.4 °F 49.5 °F 30.06 in Calm     93 % 0.00 in 0 W/m2
04:15 51.4 °F 49.5 °F 30.05 in Calm     93 % 0.00 in 0 W/m2
04:20 51.6 °F 49.9 °F 30.06 in Calm     94 % 0.00 in 0 W/m2
04:25 51.6 °F 49.7 °F 30.06 in Calm     93 % 0.00 in 0 W/m2
04:30 51.6 °F 49.7 °F 30.06 in Calm     93 % 0.00 in 0 W/m2
04:35 51.6 °F 49.7 °F 30.06 in Calm     93 % 0.00 in 0 W/m2
04:40 51.6 °F 49.9 °F 30.06 in Calm   4.0 mph 94 % 0.00 in 0 W/m2
04:45 51.6 °F 49.7 °F 30.06 in Calm   4.0 mph 93 % 0.00 in 0 W/m2
04:50 51.4 °F 49.5 °F 30.06 in Calm     93 % 0.00 in 5 W/m2
04:55 51.4 °F 49.5 °F 30.06 in Calm     93 % 0.00 in 7 W/m2
05:00 51.4 °F 49.5 °F 30.06 in Calm     93 % 0.00 in 9 W/m2
05:05 51.4 °F 49.5 °F 30.06 in Calm     93 % 0.00 in 11 W/m2
05:10 51.3 °F 49.3 °F 30.06 in Calm   1.0 mph 93 % 0.00 in 11 W/m2
05:15 51.4 °F 49.8 °F 30.06 in Calm   1.0 mph 94 % 0.00 in 12 W/m2
05:21 51.8 °F 50.1 °F 30.06 in Calm   1.0 mph 94 % 0.00 in 16 W/m2
05:26 52.2 °F 50.8 °F 30.06 in Calm   1.0 mph 95 % 0.00 in 21 W/m2
05:31 52.5 °F 51.1 °F 30.06 in Calm   2.0 mph 95 % 0.00 in 21 W/m2
05:32 52.5 °F 51.1 °F 30.06 in Calm   2.0 mph 95 % 0.00 in 21 W/m2
05:37 52.7 °F 51.3 °F 30.05 in Calm   2.0 mph 95 % 0.00 in 26 W/m2
05:42 52.9 °F 51.5 °F 30.06 in Calm   1.0 mph 95 % 0.00 in 28 W/m2
05:47 52.9 °F 51.2 °F 30.06 in Calm   1.0 mph 94 % 0.00 in 30 W/m2
05:52 52.5 °F 50.8 °F 30.06 in Calm     94 % 0.00 in 39 W/m2
05:57 52.5 °F 50.8 °F 30.06 in Calm     94 % 0.00 in 107 W/m2
06:02 52.7 °F 51.0 °F 30.06 in NW 1.0 mph 3.0 mph 94 % 0.00 in 118 W/m2
06:07 53.1 °F 51.7 °F 30.06 in NW 2.0 mph 4.0 mph 95 % 0.00 in 132 W/m2
06:12 53.8 °F 52.4 °F 30.06 in NW 2.0 mph 4.0 mph 95 % 0.00 in 98 W/m2
06:17 54.1 °F 52.7 °F 30.06 in NW 1.0 mph 4.0 mph 95 % 0.00 in 62 W/m2
06:22 54.5 °F 53.1 °F 30.06 in Calm   2.0 mph 95 % 0.00 in 77 W/m2
06:27 54.9 °F 53.5 °F 30.06 in Calm   2.0 mph 95 % 0.00 in 65 W/m2
06:32 55.2 °F 53.8 °F 30.06 in Calm   1.0 mph 95 % 0.00 in 53 W/m2
06:37 55.6 °F 53.9 °F 30.06 in Calm     94 % 0.00 in 49 W/m2
06:42 55.8 °F 54.1 °F 30.06 in Calm     94 % 0.00 in 49 W/m2
06:47 56.1 °F 54.4 °F 30.06 in Calm   1.0 mph 94 % 0.00 in 47 W/m2
06:52 56.5 °F 54.5 °F 30.06 in Calm   4.0 mph 93 % 0.00 in 46 W/m2
06:57 56.8 °F 54.8 °F 30.06 in NW 1.0 mph 4.0 mph 93 % 0.00 in 46 W/m2
07:02 57.4 °F 55.1 °F 30.06 in NW 1.0 mph 4.0 mph 92 % 0.00 in 49 W/m2
07:07 57.7 °F 55.4 °F 30.06 in Calm   2.0 mph 92 % 0.00 in 49 W/m2
07:12 58.1 °F 55.5 °F 30.06 in Calm   2.0 mph 91 % 0.00 in 206 W/m2
07:18 58.5 °F 55.8 °F 30.06 in Calm   1.0 mph 91 % 0.00 in 279 W/m2
07:23 59.2 °F 56.2 °F 30.06 in Calm   2.0 mph 90 % 0.00 in 295 W/m2
07:28 60.1 °F 56.8 °F 30.06 in Calm   4.0 mph 89 % 0.00 in 297 W/m2
07:33 61.0 °F 57.1 °F 30.05 in NW 1.0 mph 4.0 mph 87 % 0.00 in 316 W/m2
07:38 61.5 °F 57.0 °F 30.05 in West 2.0 mph 5.0 mph 85 % 0.00 in 320 W/m2
07:43 62.2 °F 57.0 °F 30.05 in SW 2.0 mph 6.0 mph 83 % 0.00 in 362 W/m2
07:48 62.8 °F 57.2 °F 30.05 in SW 2.0 mph 6.0 mph 82 % 0.00 in 376 W/m2
07:53 63.3 °F 57.4 °F 30.05 in SW 3.0 mph 7.0 mph 81 % 0.00 in 387 W/m2
07:58 63.9 °F 57.6 °F 30.05 in SSW 4.0 mph 7.0 mph 80 % 0.00 in 373 W/m2
08:03 64.0 °F 57.4 °F 30.05 in SSW 5.0 mph 9.0 mph 79 % 0.00 in 378 W/m2
08:08 64.8 °F 57.7 °F 30.05 in South 5.0 mph 9.0 mph 78 % 0.00 in 374 W/m2
08:13 64.9 °F 57.6 °F 30.05 in South 5.0 mph 10.0 mph 77 % 0.00 in 415 W/m2
08:18 65.3 °F 57.9 °F 30.05 in South 5.0 mph 10.0 mph 77 % 0.00 in 406 W/m2
08:23 65.8 °F 58.1 °F 30.05 in South 4.0 mph 9.0 mph 76 % 0.00 in 452 W/m2
08:28 66.0 °F 58.2 °F 30.05 in South 5.0 mph 9.0 mph 76 % 0.00 in 478 W/m2
08:33 66.4 °F 58.2 °F 30.05 in South 6.0 mph 11.0 mph 75 % 0.00 in 475 W/m2
08:34 66.6 °F 58.4 °F 30.05 in South 6.0 mph 11.0 mph 75 % 0.00 in 485 W/m2
08:39 66.6 °F 58.0 °F 30.05 in SSW 6.0 mph 11.0 mph 74 % 0.00 in 496 W/m2
08:49 67.3 °F 58.3 °F 30.05 in SSW 6.0 mph 11.0 mph 73 % 0.00 in 534 W/m2
08:54 67.5 °F 58.1 °F 30.05 in SSW 7.0 mph 14.0 mph 72 % 0.00 in 545 W/m2
08:59 67.6 °F 58.3 °F 30.05 in SSW 8.0 mph 14.0 mph 72 % 0.00 in 555 W/m2
09:04 68.0 °F 58.2 °F 30.05 in SW 7.0 mph 11.0 mph 71 % 0.00 in 561 W/m2
09:09 68.4 °F 58.2 °F 30.05 in SW 7.0 mph 11.0 mph 70 % 0.00 in 592 W/m2
09:14 68.5 °F 58.0 °F 30.05 in SW 7.0 mph 12.0 mph 69 % 0.00 in 610 W/m2
09:19 68.5 °F 57.6 °F 30.04 in SW 8.0 mph 12.0 mph 68 % 0.00 in 617 W/m2
09:24 68.7 °F 57.3 °F 30.04 in SSW 7.0 mph 12.0 mph 67 % 0.00 in 610 W/m2
09:26 68.7 °F 57.3 °F 30.04 in SSW 7.0 mph 12.0 mph 67 % 0.00 in 592 W/m2
09:31 68.9 °F 57.5 °F 30.04 in SSW 7.0 mph 12.0 mph 67 % 0.00 in 605 W/m2
09:36 69.4 °F 57.6 °F 30.04 in SSW 6.0 mph 12.0 mph 66 % 0.00 in 629 W/m2
09:41 69.6 °F 57.8 °F 30.04 in SW 6.0 mph 10.0 mph 66 % 0.00 in 694 W/m2
09:46 70.2 °F 57.8 °F 30.04 in SW 6.0 mph 11.0 mph 65 % 0.00 in 626 W/m2
09:51 70.2 °F 57.8 °F 30.03 in SW 6.0 mph 11.0 mph 65 % 0.00 in 540 W/m2
09:56 70.0 °F 57.7 °F 30.03 in SSW 6.0 mph 12.0 mph 65 % 0.00 in 573 W/m2
10:01 70.0 °F 57.7 °F 30.03 in SSW 7.0 mph 13.0 mph 65 % 0.00 in 628 W/m2
10:06 70.0 °F 57.7 °F 30.03 in SSW 7.0 mph 13.0 mph 65 % 0.00 in 649 W/m2
10:11 70.3 °F 58.0 °F 30.03 in SSW 6.0 mph 10.0 mph 65 % 0.00 in 571 W/m2
10:16 70.7 °F 57.9 °F 30.03 in SSW 7.0 mph 13.0 mph 64 % 0.00 in 584 W/m2
10:21 70.9 °F 58.1 °F 30.03 in SSW 7.0 mph 13.0 mph 64 % 0.00 in 577 W/m2
10:26 70.7 °F 57.9 °F 30.03 in SSW 7.0 mph 12.0 mph 64 % 0.00 in 466 W/m2
10:31 70.7 °F 57.9 °F 30.03 in SW 7.0 mph 11.0 mph 64 % 0.00 in 599 W/m2
10:36 70.9 °F 58.1 °F 30.03 in SW 6.0 mph 11.0 mph 64 % 0.00 in 601 W/m2
10:41 70.9 °F 58.1 °F 30.03 in SW 6.0 mph 11.0 mph 64 % 0.00 in 735 W/m2
10:46 70.9 °F 58.1 °F 30.02 in SW 5.0 mph 10.0 mph 64 % 0.00 in 362 W/m2
10:51 71.1 °F 57.8 °F 30.02 in SW 5.0 mph 10.0 mph 63 % 0.00 in 689 W/m2
10:56 71.2 °F 58.4 °F 30.02 in SSW 6.0 mph 10.0 mph 64 % 0.00 in 378 W/m2
11:01 71.4 °F 58.2 °F 30.02 in SSW 5.0 mph 10.0 mph 63 % 0.00 in 387 W/m2
11:06 71.1 °F 57.8 °F 30.02 in SW 6.0 mph 9.0 mph 63 % 0.00 in 626 W/m2
11:11 71.4 °F 58.6 °F 30.02 in SW 4.0 mph 9.0 mph 64 % 0.00 in 512 W/m2
11:16 71.6 °F 58.3 °F 30.02 in SSW 4.0 mph 9.0 mph 63 % 0.00 in 369 W/m2
11:21 71.6 °F 58.3 °F 30.02 in SSW 5.0 mph 9.0 mph 63 % 0.00 in 531 W/m2
11:27 71.4 °F 58.2 °F 30.01 in SSW 6.0 mph 13.0 mph 63 % 0.00 in 686 W/m2
11:32 71.8 °F 58.5 °F 30.01 in SSW 7.0 mph 13.0 mph 63 % 0.00 in 911 W/m2
11:37 72.1 °F 58.4 °F 30.01 in South 6.0 mph 12.0 mph 62 % 0.00 in 868 W/m2
11:42 72.1 °F 57.9 °F 30.01 in SSW 7.0 mph 12.0 mph 61 % 0.00 in 918 W/m2
11:47 72.3 °F 58.1 °F 30.01 in SSW 7.0 mph 12.0 mph 61 % 0.00 in 902 W/m2
11:52 72.7 °F 58.5 °F 30.01 in SSW 6.0 mph 12.0 mph 61 % 0.00 in 937 W/m2
11:57 72.9 °F 58.6 °F 30.00 in SSW 5.0 mph 12.0 mph 61 % 0.00 in 976 W/m2
12:02 73.4 °F 58.7 °F 30.00 in SW 5.0 mph 10.0 mph 60 % 0.00 in 826 W/m2
12:07 73.6 °F 58.4 °F 30.00 in SW 6.0 mph 10.0 mph 59 % 0.00 in 406 W/m2
12:12 73.4 °F 58.7 °F 30.00 in SW 6.0 mph 10.0 mph 60 % 0.00 in 388 W/m2
12:17 73.6 °F 57.9 °F 30.00 in SSW 6.0 mph 11.0 mph 58 % 0.00 in 489 W/m2
12:22 73.6 °F 57.4 °F 30.00 in SW 8.0 mph 15.0 mph 57 % 0.00 in 891 W/m2
12:27 73.4 °F 57.2 °F 30.00 in SSW 8.0 mph 15.0 mph 57 % 0.00 in 403 W/m2
12:32 73.4 °F 57.7 °F 30.00 in South 6.0 mph 13.0 mph 58 % 0.00 in 793 W/m2
12:38 73.8 °F 58.1 °F 30.00 in South 5.0 mph 9.0 mph 58 % 0.00 in 802 W/m2
12:43 74.3 °F 57.1 °F 29.99 in SSW 5.0 mph 10.0 mph 55 % 0.00 in 388 W/m2
12:48 74.5 °F 58.2 °F 29.99 in South 5.0 mph 10.0 mph 57 % 0.00 in 664 W/m2
12:53 74.5 °F 57.3 °F 29.99 in SSE 7.0 mph 13.0 mph 55 % 0.00 in 624 W/m2
12:58 74.5 °F 57.8 °F 29.99 in SSE 7.0 mph 13.0 mph 56 % 0.00 in 587 W/m2
13:03 74.5 °F 57.8 °F 29.99 in SSE 6.0 mph 12.0 mph 56 % 0.00 in 487 W/m2
13:08 74.5 °F 57.3 °F 29.98 in SSE 8.0 mph 15.0 mph 55 % 0.00 in 696 W/m2
13:13 74.7 °F 57.9 °F 29.98 in SSE 9.0 mph 16.0 mph 56 % 0.00 in 684 W/m2
13:18 74.5 °F 57.8 °F 29.98 in SSE 9.0 mph 16.0 mph 56 % 0.00 in 643 W/m2
13:23 74.3 °F 57.1 °F 29.98 in SSE 10.0 mph 16.0 mph 55 % 0.00 in 383 W/m2
13:28 73.9 °F 56.8 °F 29.98 in SSE 10.0 mph 15.0 mph 55 % 0.00 in 522 W/m2
13:33 74.1 °F 57.4 °F 29.98 in SSE 9.0 mph 16.0 mph 56 % 0.00 in 482 W/m2
13:38 73.9 °F 57.7 °F 29.97 in SSE 9.0 mph 16.0 mph 57 % 0.00 in 575 W/m2
13:43 74.1 °F 58.4 °F 29.97 in SSE 9.0 mph 15.0 mph 58 % 0.00 in 513 W/m2
13:48 74.1 °F 58.9 °F 29.97 in SSE 8.0 mph 15.0 mph 59 % 0.00 in 341 W/m2
13:53 74.1 °F 58.4 °F 29.97 in SSE 8.0 mph 13.0 mph 58 % 0.00 in 295 W/m2
13:58 73.8 °F 58.1 °F 29.97 in SSE 8.0 mph 14.0 mph 58 % 0.00 in 302 W/m2
14:03 73.8 °F 58.1 °F 29.98 in SSE 9.0 mph 14.0 mph 58 % 0.00 in 471 W/m2
14:08 73.8 °F 58.5 °F 29.97 in SSE 8.0 mph 15.0 mph 59 % 0.00 in 374 W/m2
14:13 73.9 °F 58.2 °F 29.98 in South 7.0 mph 15.0 mph 58 % 0.00 in 504 W/m2
14:18 74.1 °F 58.9 °F 29.97 in SSE 8.0 mph 14.0 mph 59 % 0.00 in 715 W/m2
14:23 74.7 °F 58.4 °F 29.97 in South 9.0 mph 14.0 mph 57 % 0.00 in 650 W/m2
14:28 75.0 °F 59.2 °F 29.97 in South 8.0 mph 14.0 mph 58 % 0.00 in 742 W/m2
14:33 75.4 °F 59.1 °F 29.97 in South 8.0 mph 14.0 mph 57 % 0.00 in 661 W/m2
14:38 75.4 °F 58.6 °F 29.97 in SSE 9.0 mph 14.0 mph 56 % 0.00 in 689 W/m2
14:43 75.4 °F 58.1 °F 29.97 in SSE 9.0 mph 18.0 mph 55 % 0.00 in 425 W/m2
14:48 75.2 °F 58.4 °F 29.97 in SSE 9.0 mph 18.0 mph 56 % 0.00 in 380 W/m2
14:53 75.0 °F 57.8 °F 29.97 in South 9.0 mph 16.0 mph 55 % 0.00 in 573 W/m2
14:54 75.0 °F 57.8 °F 29.97 in South 9.0 mph 16.0 mph 55 % 0.00 in 571 W/m2
14:59 75.0 °F 57.8 °F 29.97 in SSE 9.0 mph 14.0 mph 55 % 0.00 in 610 W/m2
15:04 75.0 °F 57.8 °F 29.97 in SSE 9.0 mph 15.0 mph 55 % 0.00 in 362 W/m2
15:09 74.8 °F 57.6 °F 29.96 in SSE 9.0 mph 16.0 mph 55 % 0.00 in 712 W/m2
15:14 75.0 °F 57.8 °F 29.96 in SSE 8.0 mph 16.0 mph 55 % 0.00 in 708 W/m2
15:19 75.6 °F 57.7 °F 29.96 in SE 8.0 mph 18.0 mph 54 % 0.00 in 666 W/m2
15:24 75.9 °F 57.6 °F 29.96 in South 9.0 mph 18.0 mph 53 % 0.00 in 881 W/m2
15:29 75.9 °F 58.1 °F 29.95 in South 9.0 mph 16.0 mph 54 % 0.00 in 777 W/m2
15:34 76.1 °F 57.7 °F 29.95 in South 8.0 mph 16.0 mph 53 % 0.00 in 294 W/m2
15:39 75.7 °F 57.4 °F 29.95 in SSE 9.0 mph 16.0 mph 53 % 0.00 in 294 W/m2
15:44 75.6 °F 57.2 °F 29.95 in SSE 10.0 mph 18.0 mph 53 % 0.00 in 341 W/m2
15:49 75.7 °F 57.9 °F 29.95 in SSE 9.0 mph 18.0 mph 54 % 0.00 in 663 W/m2
15:51 75.9 °F 58.1 °F 29.95 in South 8.0 mph 14.0 mph 54 % 0.00 in 879 W/m2
15:56 76.5 °F 58.1 °F 29.95 in SSE 9.0 mph 16.0 mph 53 % 0.00 in 877 W/m2
16:01 76.6 °F 57.2 °F 29.95 in South 9.0 mph 16.0 mph 51 % 0.00 in 882 W/m2
16:06 76.6 °F 56.6 °F 29.95 in SSW 10.0 mph 19.0 mph 50 % 0.00 in 679 W/m2
16:11 76.6 °F 57.2 °F 29.94 in South 10.0 mph 19.0 mph 51 % 0.00 in 631 W/m2
16:16 77.0 °F 56.4 °F 29.94 in South 8.0 mph 18.0 mph 49 % 0.00 in 339 W/m2
16:21 77.0 °F 56.4 °F 29.94 in South 9.0 mph 15.0 mph 49 % 0.00 in 788 W/m2
16:26 77.0 °F 55.8 °F 29.94 in SSW 10.0 mph 18.0 mph 48 % 0.00 in 729 W/m2
16:32 76.5 °F 55.9 °F 29.94 in SSW 11.0 mph 18.0 mph 49 % 0.00 in 265 W/m2
16:37 76.3 °F 56.3 °F 29.94 in SSW 10.0 mph 15.0 mph 50 % 0.00 in 654 W/m2
16:42 76.3 °F 56.3 °F 29.94 in South 10.0 mph 15.0 mph 50 % 0.00 in 243 W/m2
16:47 75.9 °F 56.5 °F 29.94 in SSE 9.0 mph 16.0 mph 51 % 0.00 in 299 W/m2
16:52 75.9 °F 57.6 °F 29.93 in South 7.0 mph 16.0 mph 53 % 0.00 in 622 W/m2
16:57 76.5 °F 57.5 °F 29.93 in SSW 6.0 mph 11.0 mph 52 % 0.00 in 752 W/m2
17:02 77.2 °F 58.2 °F 29.93 in SSW 6.0 mph 16.0 mph 52 % 0.00 in 613 W/m2
17:08 77.2 °F 57.7 °F 29.93 in SSW 8.0 mph 16.0 mph 51 % 0.00 in 174 W/m2
17:13 76.3 °F 57.4 °F 29.93 in SSW 9.0 mph 18.0 mph 52 % 0.00 in 176 W/m2
17:18 76.1 °F 57.2 °F 29.93 in SSW 8.0 mph 18.0 mph 52 % 0.00 in 524 W/m2
17:23 76.1 °F 57.7 °F 29.92 in SSW 8.0 mph 13.0 mph 53 % 0.00 in 529 W/m2
17:28 76.3 °F 56.8 °F 29.92 in SW 8.0 mph 14.0 mph 51 % 0.00 in 464 W/m2
17:33 76.5 °F 55.9 °F 29.92 in SW 9.0 mph 19.0 mph 49 % 0.00 in 487 W/m2
17:38 76.5 °F 55.9 °F 29.92 in SSW 9.0 mph 19.0 mph 49 % 0.00 in 207 W/m2
17:43 76.6 °F 56.0 °F 29.92 in SSW 8.0 mph 13.0 mph 49 % 0.00 in 492 W/m2
17:48 76.8 °F 55.6 °F 29.92 in South 8.0 mph 14.0 mph 48 % 0.00 in 192 W/m2
17:53 76.5 °F 55.9 °F 29.92 in South 8.0 mph 16.0 mph 49 % 0.00 in 192 W/m2
17:58 76.1 °F 56.1 °F 29.92 in SSW 9.0 mph 16.0 mph 50 % 0.00 in 183 W/m2
18:03 75.7 °F 56.3 °F 29.92 in SSW 8.0 mph 13.0 mph 51 % 0.00 in 213 W/m2
18:08 75.7 °F 56.9 °F 29.91 in SSW 7.0 mph 13.0 mph 52 % 0.00 in 285 W/m2
18:13 76.1 °F 56.7 °F 29.92 in South 6.0 mph 12.0 mph 51 % 0.00 in 160 W/m2
18:18 76.1 °F 56.7 °F 29.92 in South 7.0 mph 13.0 mph 51 % 0.00 in 165 W/m2
18:23 75.9 °F 57.0 °F 29.92 in SSW 7.0 mph 13.0 mph 52 % 0.00 in 183 W/m2
18:28 75.9 °F 57.6 °F 29.91 in SSW 4.0 mph 12.0 mph 53 % 0.00 in 178 W/m2
18:33 75.9 °F 57.6 °F 29.91 in South 4.0 mph 9.0 mph 53 % 0.00 in 241 W/m2
18:38 75.9 °F 57.6 °F 29.91 in South 5.0 mph 10.0 mph 53 % 0.00 in 313 W/m2
18:43 75.7 °F 57.4 °F 29.91 in South 7.0 mph 14.0 mph 53 % 0.00 in 149 W/m2
18:48 75.4 °F 57.6 °F 29.91 in South 7.0 mph 14.0 mph 54 % 0.00 in 125 W/m2
18:53 75.2 °F 57.4 °F 29.91 in South 6.0 mph 13.0 mph 54 % 0.00 in 130 W/m2
18:58 75.0 °F 57.8 °F 29.91 in SSE 7.0 mph 13.0 mph 55 % 0.00 in 125 W/m2
19:03 74.8 °F 57.6 °F 29.91 in South 7.0 mph 12.0 mph 55 % 0.00 in 102 W/m2
19:08 74.7 °F 57.9 °F 29.91 in South 5.0 mph 12.0 mph 56 % 0.00 in 107 W/m2
19:13 74.7 °F 57.9 °F 29.91 in South 4.0 mph 9.0 mph 56 % 0.00 in 118 W/m2
19:18 74.7 °F 57.9 °F 29.91 in South 6.0 mph 13.0 mph 56 % 0.00 in 223 W/m2
19:23 74.7 °F 57.9 °F 29.90 in SSW 7.0 mph 13.0 mph 56 % 0.00 in 105 W/m2
19:28 74.7 °F 57.9 °F 29.90 in SSW 6.0 mph 10.0 mph 56 % 0.00 in 98 W/m2
19:33 74.7 °F 57.9 °F 29.90 in South 6.0 mph 12.0 mph 56 % 0.00 in 137 W/m2
19:38 74.5 °F 57.8 °F 29.90 in South 6.0 mph 12.0 mph 56 % 0.00 in 141 W/m2
19:44 74.5 °F 57.8 °F 29.89 in South 6.0 mph 12.0 mph 56 % 0.00 in 135 W/m2
19:49 74.7 °F 57.9 °F 29.89 in South 6.0 mph 12.0 mph 56 % 0.00 in 127 W/m2
19:54 74.7 °F 57.9 °F 29.89 in South 6.0 mph 10.0 mph 56 % 0.00 in 70 W/m2
19:59 74.5 °F 58.2 °F 29.89 in SSE 5.0 mph 10.0 mph 57 % 0.00 in 54 W/m2
20:04 74.1 °F 57.9 °F 29.89 in SSE 5.0 mph 12.0 mph 57 % 0.00 in 54 W/m2
20:09 73.8 °F 58.1 °F 29.89 in SSE 6.0 mph 12.0 mph 58 % 0.00 in 49 W/m2
20:14 73.6 °F 57.9 °F 29.89 in SSE 5.0 mph 9.0 mph 58 % 0.00 in 53 W/m2
20:19 73.4 °F 57.7 °F 29.89 in SSE 5.0 mph 8.0 mph 58 % 0.00 in 39 W/m2
20:24 73.2 °F 58.0 °F 29.89 in SSE 4.0 mph 8.0 mph 59 % 0.00 in 42 W/m2
20:29 73.0 °F 57.9 °F 29.88 in SSE 4.0 mph 7.0 mph 59 % 0.00 in 42 W/m2
20:34 72.9 °F 58.2 °F 29.88 in SSE 4.0 mph 8.0 mph 60 % 0.00 in 42 W/m2
20:39 72.7 °F 58.5 °F 29.89 in SSE 4.0 mph 8.0 mph 61 % 0.00 in 37 W/m2
20:44 72.5 °F 58.3 °F 29.88 in SSE 4.0 mph 6.0 mph 61 % 0.00 in 32 W/m2
20:49 72.3 °F 58.6 °F 29.88 in SE 4.0 mph 7.0 mph 62 % 0.00 in 25 W/m2
20:54 72.3 °F 58.6 °F 29.88 in SE 3.0 mph 7.0 mph 62 % 0.00 in 32 W/m2
20:59 72.1 °F 58.4 °F 29.88 in SE 4.0 mph 6.0 mph 62 % 0.00 in 33 W/m2
21:04 72.0 °F 58.7 °F 29.88 in SE 4.0 mph 7.0 mph 63 % 0.00 in 26 W/m2
21:09 72.0 °F 59.1 °F 29.88 in SE 4.0 mph 7.0 mph 64 % 0.00 in 16 W/m2
21:14 71.8 °F 58.9 °F 29.89 in SE 3.0 mph 6.0 mph 64 % 0.00 in 11 W/m2
21:19 71.4 °F 59.0 °F 29.88 in SE 3.0 mph 6.0 mph 65 % 0.00 in 9 W/m2
21:24 71.2 °F 59.3 °F 29.88 in SE 4.0 mph 8.0 mph 66 % 0.00 in 5 W/m2
21:29 71.1 °F 59.1 °F 29.89 in SE 5.0 mph 9.0 mph 66 % 0.00 in 0 W/m2
21:34 70.9 °F 59.4 °F 29.88 in SE 7.0 mph 12.0 mph 67 % 0.00 in 0 W/m2
21:39 70.7 °F 59.2 °F 29.89 in SE 8.0 mph 12.0 mph 67 % 0.00 in 0 W/m2
21:44 70.7 °F 59.2 °F 29.89 in SE 7.0 mph 14.0 mph 67 % 0.00 in 0 W/m2
21:49 70.5 °F 59.0 °F 29.89 in SSE 7.0 mph 14.0 mph 67 % 0.00 in 0 W/m2
21:54 70.5 °F 59.4 °F 29.89 in SSE 7.0 mph 12.0 mph 68 % 0.00 in 0 W/m2
21:59 70.3 °F 59.3 °F 29.89 in SSE 6.0 mph 10.0 mph 68 % 0.00 in 0 W/m2
22:04 70.3 °F 59.3 °F 29.89 in SSE 6.0 mph 10.0 mph 68 % 0.00 in 0 W/m2
22:09 70.2 °F 59.5 °F 29.89 in SSE 6.0 mph 9.0 mph 69 % 0.00 in 0 W/m2
22:14 70.0 °F 59.3 °F 29.89 in SSE 6.0 mph 9.0 mph 69 % 0.00 in 0 W/m2
22:19 70.0 °F 59.3 °F 29.89 in SSE 5.0 mph 8.0 mph 69 % 0.00 in 0 W/m2
22:24 69.8 °F 59.2 °F 29.89 in SSE 5.0 mph 8.0 mph 69 % 0.00 in 0 W/m2
22:29 69.6 °F 59.4 °F 29.88 in SSE 6.0 mph 9.0 mph 70 % 0.00 in 0 W/m2
22:34 69.4 °F 59.2 °F 29.89 in SSE 6.0 mph 11.0 mph 70 % 0.00 in 0 W/m2
22:39 69.1 °F 58.9 °F 29.88 in SE 7.0 mph 11.0 mph 70 % 0.00 in 0 W/m2
22:44 68.9 °F 58.7 °F 29.88 in SE 7.0 mph 11.0 mph 70 % 0.00 in 0 W/m2
22:49 68.7 °F 58.5 °F 29.88 in SSE 7.0 mph 13.0 mph 70 % 0.00 in 0 W/m2
22:54 68.5 °F 58.8 °F 29.88 in SSE 8.0 mph 13.0 mph 71 % 0.00 in 0 W/m2
22:59 68.4 °F 58.6 °F 29.88 in SE 8.0 mph 12.0 mph 71 % 0.00 in 0 W/m2
23:04 68.4 °F 58.6 °F 29.88 in SSE 8.0 mph 13.0 mph 71 % 0.00 in 0 W/m2
23:09 68.2 °F 58.4 °F 29.88 in SSE 8.0 mph 13.0 mph 71 % 0.00 in 0 W/m2
23:14 68.0 °F 58.2 °F 29.88 in SSE 8.0 mph 12.0 mph 71 % 0.00 in 0 W/m2
23:19 67.8 °F 58.1 °F 29.88 in SSE 7.0 mph 12.0 mph 71 % 0.00 in 0 W/m2
23:24 67.6 °F 57.9 °F 29.87 in SE 8.0 mph 12.0 mph 71 % 0.00 in 0 W/m2
23:29 67.6 °F 57.9 °F 29.88 in SE 8.0 mph 12.0 mph 71 % 0.00 in 0 W/m2
23:34 67.5 °F 57.7 °F 29.88 in SE 8.0 mph 12.0 mph 71 % 0.00 in 0 W/m2
23:39 67.3 °F 57.9 °F 29.88 in SE 7.0 mph 11.0 mph 72 % 0.00 in 0 W/m2
23:45 67.3 °F 57.9 °F 29.87 in SE 7.0 mph 11.0 mph 72 % 0.00 in 0 W/m2
23:50 67.1 °F 57.8 °F 29.87 in SE 6.0 mph 9.0 mph 72 % 0.00 in 0 W/m2
23:55 66.9 °F 57.6 °F 29.87 in SE 6.0 mph 9.0 mph 72 % 0.00 in 0 W/m2
Delerius-Weather
Compliments of Weather Underground - 2.25 mb

Data updates at regular intervals.